Terminal Aerodrome Forecast
Issued by NWS

Home | Current Version | Previous Version | Text Only | Print | Product List | Glossary On
Versions: 1 2 3 4 5 6 7 8 9 10 11 12 13 14 15 16 17 18
000
FTUS43 KDLH 222333
TAFHYR
TAF
KHYR 222333Z 2300/2324 VRB05KT P6SM SKC
     FM231400 28007KT P6SM SCT035
     FM231700 29010KT P6SM BKN035
     FM232000 28010G17KT P6SM BKN040=

USA.gov is the U.S. government's official web portal to all federal, state and local government web resources and services.